createdAt,value
2018-05-06T00:01:36.212Z,67.50
2018-05-06T00:04:02.662Z,67.60
2018-05-06T00:06:29.126Z,67.70
2018-05-06T00:08:55.609Z,67.70
2018-05-06T00:11:22.033Z,67.60
2018-05-06T00:13:48.513Z,68.00
2018-05-06T00:16:14.991Z,68.20
2018-05-06T00:18:41.433Z,68.30
2018-05-06T00:21:07.987Z,68.50
2018-05-06T00:23:34.396Z,68.70
2018-05-06T00:26:00.804Z,68.70
2018-05-06T00:28:27.226Z,68.40
2018-05-06T00:30:53.654Z,69.50
2018-05-06T00:33:20.070Z,68.60
2018-05-06T00:35:46.503Z,68.70
2018-05-06T00:38:12.949Z,69.60
2018-05-06T00:40:39.383Z,69.00
2018-05-06T00:43:05.821Z,69.10
2018-05-06T00:45:32.321Z,69.10
2018-05-06T00:47:58.923Z,69.40
2018-05-06T00:50:26.152Z,69.70
2018-05-06T00:52:52.651Z,69.70
2018-05-06T00:55:19.064Z,69.80
2018-05-06T00:57:45.470Z,70.30
2018-05-06T01:00:11.886Z,70.40
2018-05-06T01:02:38.305Z,70.40
2018-05-06T01:05:04.749Z,70.70
2018-05-06T01:07:31.593Z,71.00
2018-05-06T01:09:58.803Z,71.30
2018-05-06T01:12:25.947Z,72.00
2018-05-06T01:14:52.430Z,71.50
2018-05-06T01:17:18.990Z,71.60
2018-05-06T01:19:45.403Z,71.60
2018-05-06T01:22:11.827Z,71.90
2018-05-06T01:24:38.272Z,71.70
2018-05-06T01:27:04.690Z,72.20
2018-05-06T01:29:31.234Z,72.50
2018-05-06T01:31:57.653Z,72.60
2018-05-06T01:34:24.097Z,73.00
2018-05-06T01:36:50.531Z,73.30
2018-05-06T01:39:17.054Z,73.60
2018-05-06T01:41:43.485Z,73.70
2018-05-06T01:44:09.893Z,73.80
2018-05-06T01:46:36.284Z,74.10
2018-05-06T01:49:02.746Z,74.20
2018-05-06T01:51:29.176Z,74.40
2018-05-06T01:53:55.596Z,74.70
2018-05-06T01:56:22.100Z,74.80
2018-05-06T01:58:49.332Z,75.00
2018-05-06T02:01:15.889Z,75.00
2018-05-06T02:03:42.428Z,75.20
2018-05-06T02:06:08.875Z,75.20
2018-05-06T02:08:36.025Z,75.60
2018-05-06T02:11:03.190Z,75.20
2018-05-06T02:13:29.828Z,75.20
2018-05-06T02:15:56.281Z,75.50
2018-05-06T02:18:22.688Z,75.80
2018-05-06T02:20:49.866Z,76.30
2018-05-06T02:23:16.262Z,76.30
2018-05-06T02:25:43.426Z,76.80
2018-05-06T02:28:09.863Z,76.80
2018-05-06T02:30:36.294Z,77.10
2018-05-06T02:33:02.724Z,77.60
2018-05-06T02:35:30.146Z,78.30
2018-05-06T02:37:56.612Z,78.30
2018-05-06T02:40:23.046Z,78.50
2018-05-06T02:42:49.512Z,78.90
2018-05-06T02:45:15.911Z,79.00
2018-05-06T02:47:42.309Z,79.20
2018-05-06T02:50:08.723Z,79.50
2018-05-06T02:52:35.931Z,79.70
2018-05-06T02:55:03.115Z,80.30
2018-05-06T02:57:29.687Z,80.20
2018-05-06T02:59:56.923Z,81.20
2018-05-06T03:02:23.338Z,80.60
2018-05-06T03:04:49.790Z,80.90
2018-05-06T03:07:16.226Z,81.10
2018-05-06T03:09:42.651Z,81.20
2018-05-06T03:12:09.082Z,81.40
2018-05-06T03:14:35.489Z,81.80
2018-05-06T03:17:01.909Z,81.80
2018-05-06T03:19:28.385Z,82.00
2018-05-06T03:21:54.779Z,81.70
2018-05-06T03:24:21.259Z,82.40
2018-05-06T03:26:47.693Z,82.70
2018-05-06T03:29:14.116Z,82.60
2018-05-06T03:31:40.494Z,82.80
2018-05-06T03:34:07.663Z,82.30
2018-05-06T03:36:34.827Z,82.90
2018-05-06T03:39:01.308Z,82.90
2018-05-06T03:41:27.729Z,83.10
2018-05-06T03:43:54.179Z,82.40
2018-05-06T03:46:20.671Z,82.70
2018-05-06T03:48:47.925Z,83.90
2018-05-06T03:51:14.406Z,83.20
2018-05-06T03:53:40.820Z,82.90
2018-05-06T03:59:33.065Z,83.30
2018-05-06T04:05:08.694Z,82.30
2018-05-06T04:07:35.124Z,82.30
2018-05-06T04:10:01.523Z,81.50
2018-05-06T04:12:28.673Z,81.40
2018-05-06T04:14:55.098Z,81.10
2018-05-06T04:17:21.610Z,80.70
2018-05-06T04:19:48.014Z,80.10
2018-05-06T04:22:14.517Z,79.80
2018-05-06T04:24:40.933Z,79.30
2018-05-06T04:27:07.393Z,78.60
2018-05-06T04:29:33.881Z,78.40
2018-05-06T04:32:00.292Z,78.60
2018-05-06T04:34:26.684Z,78.10
2018-05-06T04:36:53.872Z,77.40
2018-05-06T04:39:20.300Z,77.40
2018-05-06T04:41:46.714Z,76.80
2018-05-06T04:44:13.227Z,72.30
2018-05-06T04:46:39.587Z,67.30
2018-05-06T04:49:06.046Z,59.80
2018-05-06T04:51:32.490Z,56.50
2018-05-06T04:53:58.911Z,55.00
2018-05-06T04:56:25.334Z,53.80
2018-05-06T04:58:52.068Z,50.40
2018-05-06T05:01:18.498Z,48.00
2018-05-06T05:03:44.925Z,44.90
2018-05-06T05:06:11.377Z,42.80
2018-05-06T05:08:37.781Z,40.70
2018-05-06T05:11:04.982Z,37.40
2018-05-06T05:13:31.438Z,37.40
2018-05-06T05:15:57.832Z,37.50
2018-05-06T05:18:24.241Z,36.50
2018-05-06T05:20:51.513Z,34.60
2018-05-06T05:23:18.606Z,33.90
2018-05-06T05:25:44.997Z,33.90
2018-05-06T05:28:11.516Z,34.00
2018-05-06T05:30:37.941Z,33.10
2018-05-06T05:33:05.068Z,31.60
2018-05-06T05:35:31.462Z,31.50
2018-05-06T05:37:57.861Z,30.70
2018-05-06T05:40:25.043Z,30.00
2018-05-06T05:42:51.554Z,30.00
2018-05-06T05:45:18.006Z,30.20
2018-05-06T05:47:44.495Z,29.90
2018-05-06T05:50:10.918Z,30.00
2018-05-06T05:52:37.409Z,30.00
2018-05-06T05:55:03.885Z,30.10
2018-05-06T05:57:30.289Z,30.90
2018-05-06T05:59:56.709Z,31.40
2018-05-06T06:02:23.237Z,31.70
2018-05-06T06:04:49.688Z,32.80
2018-05-06T06:07:16.147Z,33.00
2018-05-06T06:09:43.315Z,34.00
2018-05-06T06:12:10.496Z,34.30
2018-05-06T06:14:36.896Z,34.30
2018-05-06T06:17:04.054Z,35.20
2018-05-06T06:19:31.568Z,35.10
2018-05-06T06:21:58.016Z,35.10
2018-05-06T06:24:25.233Z,36.70
2018-05-06T06:26:51.686Z,36.70
2018-05-06T06:29:18.064Z,37.40
2018-05-06T06:31:45.246Z,36.10
2018-05-06T06:34:11.689Z,36.10
2018-05-06T06:36:38.293Z,37.00
2018-05-06T06:39:04.775Z,36.40
2018-05-06T06:41:31.225Z,36.90
2018-05-06T06:43:57.682Z,36.70
2018-05-06T06:46:24.880Z,35.10
2018-05-06T06:48:51.328Z,35.10
2018-05-06T06:51:17.730Z,34.40
2018-05-06T06:53:44.150Z,33.60
2018-05-06T06:56:10.611Z,32.50
2018-05-06T06:58:37.050Z,31.80
2018-05-06T07:01:03.488Z,31.60
2018-05-06T07:03:29.934Z,31.80
2018-05-06T07:05:56.356Z,31.20
2018-05-06T07:08:22.755Z,30.90
2018-05-06T07:10:49.908Z,30.00
2018-05-06T07:13:16.324Z,30.00
2018-05-06T07:15:42.709Z,29.10
2018-05-06T07:18:09.162Z,28.70
2018-05-06T07:20:35.561Z,28.60
2018-05-06T07:23:01.961Z,28.30
2018-05-06T07:25:28.391Z,27.70
2018-05-06T07:27:54.799Z,27.20
2018-05-06T07:30:21.197Z,26.60
2018-05-06T07:32:47.662Z,26.40
2018-05-06T07:35:14.801Z,25.40
2018-05-06T07:37:41.238Z,25.40
2018-05-06T07:40:07.652Z,25.40
2018-05-06T07:42:34.093Z,25.00
2018-05-06T07:45:00.494Z,24.30
2018-05-06T07:47:26.909Z,24.00
2018-05-06T07:49:53.332Z,23.50
2018-05-06T07:52:20.475Z,22.40
2018-05-06T07:54:46.927Z,22.40
2018-05-06T07:57:13.347Z,22.10
2018-05-06T07:59:40.514Z,21.50
2018-05-06T08:02:06.996Z,21.50
2018-05-06T08:04:34.380Z,20.60
2018-05-06T08:07:01.567Z,20.20
2018-05-06T08:09:27.990Z,20.10
2018-05-06T08:11:54.431Z,21.20
2018-05-06T08:14:20.846Z,21.10
2018-05-06T08:16:47.381Z,21.00
2018-05-06T08:19:13.904Z,20.80
2018-05-06T08:21:41.060Z,20.50
2018-05-06T08:24:07.748Z,20.40
2018-05-06T08:26:35.386Z,19.10
2018-05-06T08:29:01.867Z,19.10
2018-05-06T08:31:28.301Z,19.00
2018-05-06T08:33:54.734Z,19.30
2018-05-06T08:36:21.145Z,18.90
2018-05-06T08:38:47.589Z,18.80
2018-05-06T08:41:15.485Z,18.40
2018-05-06T08:43:42.631Z,18.80
2018-05-06T08:46:09.807Z,20.00
2018-05-06T08:48:36.284Z,19.40
2018-05-06T08:51:02.734Z,20.00
2018-05-06T08:53:29.195Z,21.20
2018-05-06T08:55:55.602Z,22.10
2018-05-06T08:58:22.033Z,24.00
2018-05-06T09:00:48.569Z,25.40
2018-05-06T09:03:15.001Z,26.60
2018-05-06T09:05:41.529Z,27.40
2018-05-06T09:08:07.981Z,28.60
2018-05-06T09:10:35.149Z,30.50
2018-05-06T09:13:02.296Z,31.80
2018-05-06T09:15:28.808Z,31.80
2018-05-06T09:17:55.258Z,32.80
2018-05-06T09:20:21.748Z,33.50
2018-05-06T09:22:48.242Z,34.10
2018-05-06T09:25:14.676Z,33.90
2018-05-06T09:27:41.132Z,34.40
2018-05-06T09:30:07.600Z,34.30
2018-05-06T09:32:34.789Z,34.70
2018-05-06T09:35:01.204Z,34.70
2018-05-06T09:37:27.837Z,34.90
2018-05-06T09:39:54.244Z,34.50
2018-05-06T09:42:20.624Z,35.10
2018-05-06T09:44:47.826Z,36.00
2018-05-06T09:47:14.260Z,36.00
2018-05-06T09:49:40.738Z,36.40
2018-05-06T09:52:08.186Z,36.90
2018-05-06T09:54:35.366Z,37.30
2018-05-06T09:57:01.773Z,37.30
2018-05-06T09:59:29.034Z,36.60
2018-05-06T10:01:55.522Z,36.60
2018-05-06T10:04:21.981Z,34.50
2018-05-06T10:06:48.428Z,34.10
2018-05-06T10:09:14.904Z,34.10
2018-05-06T10:11:41.363Z,34.00
2018-05-06T10:14:07.801Z,34.10
2018-05-06T10:16:34.280Z,34.80
2018-05-06T10:19:00.684Z,34.40
2018-05-06T10:21:27.906Z,34.60
2018-05-06T10:23:54.302Z,34.50
2018-05-06T10:26:20.768Z,34.70
2018-05-06T10:28:47.223Z,34.60
2018-05-06T10:31:13.769Z,34.60
2018-05-06T10:33:40.951Z,34.60
2018-05-06T10:36:07.453Z,34.50
2018-05-06T10:38:33.915Z,34.40
2018-05-06T10:41:01.064Z,34.20
2018-05-06T10:43:27.492Z,34.20
2018-05-06T10:45:54.704Z,33.20
2018-05-06T10:48:21.120Z,33.20
2018-05-06T10:53:20.775Z,32.80
2018-05-06T10:55:47.210Z,32.70
2018-05-06T10:58:20.699Z,32.00
2018-05-06T11:00:47.134Z,32.00
2018-05-06T11:03:13.593Z,32.50
2018-05-06T11:05:40.024Z,32.30
2018-05-06T11:08:11.798Z,32.70
2018-05-06T11:10:38.929Z,32.80
2018-05-06T11:13:05.371Z,33.20
2018-05-06T11:15:32.705Z,33.20
2018-05-06T11:17:59.305Z,33.20
2018-05-06T11:20:26.599Z,32.30
2018-05-06T11:22:53.033Z,32.30
2018-05-06T11:25:20.296Z,32.70
2018-05-06T11:27:46.972Z,32.70
2018-05-06T11:30:13.804Z,32.70
2018-05-06T11:32:40.696Z,31.90
2018-05-06T11:35:07.251Z,31.80
2018-05-06T11:37:33.867Z,32.20
2018-05-06T11:40:00.273Z,32.90
2018-05-06T11:42:26.862Z,33.10
2018-05-06T11:44:54.161Z,33.00
2018-05-06T11:49:54.015Z,31.80
2018-05-06T11:52:20.425Z,31.80
2018-05-06T11:54:47.475Z,32.30
2018-05-06T11:57:14.693Z,32.50
2018-05-06T11:59:41.841Z,32.30
2018-05-06T12:02:09.075Z,32.40
2018-05-06T12:04:36.363Z,32.20
2018-05-06T12:07:02.963Z,32.20
2018-05-06T12:09:29.492Z,32.90
2018-05-06T12:11:55.968Z,32.40
2018-05-06T12:14:22.462Z,32.60
2018-05-06T12:16:49.633Z,32.90
2018-05-06T12:19:16.110Z,32.90
2018-05-06T12:21:42.648Z,32.60
2018-05-06T12:24:09.061Z,32.70
2018-05-06T12:26:35.529Z,33.00
2018-05-06T12:29:02.263Z,32.50
2018-05-06T12:31:29.558Z,32.60
2018-05-06T12:33:56.917Z,32.60
2018-05-06T12:36:24.447Z,32.40
2018-05-06T12:38:51.649Z,32.70
2018-05-06T12:41:18.152Z,32.60
2018-05-06T12:43:44.529Z,32.40
2018-05-06T12:46:11.171Z,32.00
2018-05-06T12:48:37.748Z,32.30
2018-05-06T12:51:04.136Z,32.60
2018-05-06T12:53:30.546Z,32.80
2018-05-06T12:55:57.088Z,33.20
2018-05-06T12:58:23.498Z,33.30
2018-05-06T13:00:50.632Z,33.30
2018-05-06T13:03:17.168Z,33.30
2018-05-06T13:05:43.577Z,33.40
2018-05-06T13:08:10.030Z,33.90
2018-05-06T13:10:36.449Z,34.10
2018-05-06T13:13:02.866Z,33.60
2018-05-06T13:15:29.286Z,33.80
2018-05-06T13:17:55.716Z,32.90
2018-05-06T13:20:22.152Z,32.40
2018-05-06T13:22:48.686Z,33.00
2018-05-06T13:25:15.168Z,32.30
2018-05-06T13:27:41.599Z,32.80
2018-05-06T13:30:08.033Z,32.80
2018-05-06T13:32:35.275Z,33.00
2018-05-06T13:35:01.720Z,33.00
2018-05-06T13:37:28.155Z,33.10
2018-05-06T13:39:55.335Z,33.40
2018-05-06T13:42:22.537Z,33.50
2018-05-06T13:44:48.984Z,33.40
2018-05-06T13:47:19.557Z,33.30
2018-05-06T13:49:46.380Z,33.40
2018-05-06T13:52:13.620Z,33.40
2018-05-06T13:54:40.799Z,33.30
2018-05-06T13:57:07.252Z,33.70
2018-05-06T13:59:33.730Z,33.80
2018-05-06T14:02:00.165Z,34.00
2018-05-06T14:04:26.568Z,33.80
2018-05-06T14:06:53.032Z,33.20
2018-05-06T14:09:20.089Z,33.60
2018-05-06T14:11:47.257Z,33.90
2018-05-06T14:14:13.697Z,33.90
2018-05-06T14:16:40.859Z,34.30
2018-05-06T14:19:07.277Z,34.30
2018-05-06T14:21:34.466Z,33.50
2018-05-06T14:24:01.113Z,33.50
2018-05-06T14:26:27.523Z,33.60
2018-05-06T14:28:53.944Z,33.50
2018-05-06T14:31:20.409Z,33.60
2018-05-06T14:33:46.977Z,34.00
2018-05-06T14:36:14.152Z,34.10
2018-05-06T14:38:40.577Z,34.10
2018-05-06T14:41:07.758Z,33.80
2018-05-06T14:43:34.177Z,33.80
2018-05-06T14:46:00.674Z,34.00
2018-05-06T14:48:27.232Z,33.90
2018-05-06T14:50:53.629Z,33.90
2018-05-06T14:53:20.049Z,33.80
2018-05-06T14:55:46.456Z,33.70
2018-05-06T14:58:12.861Z,33.60
2018-05-06T15:00:40.052Z,33.50
2018-05-06T15:03:06.486Z,33.40
2018-05-06T15:05:32.893Z,33.30
2018-05-06T15:07:59.349Z,33.40
2018-05-06T15:10:25.833Z,33.20
2018-05-06T15:12:52.981Z,33.10
2018-05-06T15:15:19.413Z,33.10
2018-05-06T15:17:46.663Z,33.10
2018-05-06T15:20:13.072Z,33.10
2018-05-06T15:22:39.541Z,33.90
2018-05-06T15:25:06.664Z,31.80
2018-05-06T15:27:33.108Z,31.80
2018-05-06T15:29:59.562Z,31.60
2018-05-06T15:32:26.845Z,31.90
2018-05-06T15:34:53.442Z,31.90
2018-05-06T15:37:20.617Z,32.30
2018-05-06T15:39:47.175Z,32.20
2018-05-06T15:42:13.590Z,32.50
2018-05-06T15:44:40.045Z,32.90
2018-05-06T15:47:06.463Z,33.10
2018-05-06T15:49:32.953Z,33.50
2018-05-06T15:51:59.405Z,33.10
2018-05-06T15:54:26.612Z,33.00
2018-05-06T15:56:53.046Z,33.00
2018-05-06T15:59:19.483Z,32.90
2018-05-06T16:01:58.654Z,33.40
2018-05-06T16:04:25.840Z,33.70
2018-05-06T16:06:52.277Z,33.70
2018-05-06T16:09:18.708Z,32.90
2018-05-06T16:11:45.186Z,33.20
2018-05-06T16:14:11.603Z,33.60
2018-05-06T16:16:38.821Z,34.20
2018-05-06T16:19:05.257Z,34.20
2018-05-06T16:21:31.681Z,35.00
2018-05-06T16:23:58.817Z,36.60
2018-05-06T16:26:25.275Z,36.60
2018-05-06T16:28:51.688Z,36.90
2018-05-06T16:31:18.193Z,37.30
2018-05-06T16:33:44.670Z,37.00
2018-05-06T16:36:11.081Z,37.30
2018-05-06T16:38:38.266Z,38.50
2018-05-06T16:41:04.719Z,38.50
2018-05-06T16:43:31.181Z,38.80
2018-05-06T16:45:57.616Z,39.00
2018-05-06T16:48:24.103Z,39.20
2018-05-06T16:50:50.793Z,39.40
2018-05-06T16:53:17.351Z,39.50
2018-05-06T16:55:43.864Z,39.70
2018-05-06T16:58:11.208Z,39.70
2018-05-06T17:00:38.419Z,39.80
2018-05-06T17:03:04.882Z,39.80
2018-05-06T17:05:31.400Z,40.00
2018-05-06T17:07:57.947Z,40.00
2018-05-06T17:10:25.901Z,40.70
2018-05-06T17:12:52.412Z,40.70
2018-05-06T17:15:18.897Z,40.90
2018-05-06T17:17:45.389Z,41.00
2018-05-06T17:20:11.696Z,41.20
2018-05-06T17:22:38.201Z,41.20
2018-05-06T17:25:04.949Z,41.30
2018-05-06T17:27:32.399Z,41.80
2018-05-06T17:29:58.907Z,41.70
2018-05-06T17:32:25.444Z,41.60
2018-05-06T17:34:51.996Z,41.50
2018-05-06T17:37:18.571Z,41.70
2018-05-06T17:39:45.942Z,42.10
2018-05-06T17:42:12.369Z,42.10
2018-05-06T17:44:38.870Z,42.00
2018-05-06T17:47:05.412Z,42.30
2018-05-06T17:49:32.084Z,42.60
2018-05-06T17:51:58.660Z,42.50
2018-05-06T17:54:27.273Z,42.40
2018-05-06T17:56:53.855Z,42.30
2018-05-06T17:59:20.404Z,42.50
2018-05-06T18:01:47.015Z,42.70
2018-05-06T18:04:13.689Z,42.90
2018-05-06T18:06:41.348Z,43.20
2018-05-06T18:09:08.712Z,43.30
2018-05-06T18:11:35.462Z,43.20
2018-05-06T18:14:02.245Z,43.40
2018-05-06T18:16:28.955Z,43.50
2018-05-06T18:18:55.465Z,43.60
2018-05-06T18:21:21.894Z,43.90
2018-05-06T18:23:48.321Z,44.20
2018-05-06T18:26:14.764Z,44.60
2018-05-06T18:28:41.212Z,44.70
2018-05-06T18:31:08.448Z,45.00
2018-05-06T18:33:35.660Z,45.10
2018-05-06T18:36:02.978Z,45.30
2018-05-06T18:38:30.236Z,45.40
2018-05-06T18:40:57.307Z,45.30
2018-05-06T18:43:23.831Z,45.40
2018-05-06T18:45:50.317Z,45.40
2018-05-06T18:48:17.038Z,45.60
2018-05-06T18:50:43.780Z,45.80
2018-05-06T18:53:11.302Z,45.90
2018-05-06T18:55:37.783Z,46.10
2018-05-06T18:58:04.597Z,46.10
2018-05-06T19:00:31.149Z,46.30
2018-05-06T19:02:57.633Z,46.30
2018-05-06T19:05:24.137Z,46.30
2018-05-06T19:07:50.673Z,46.40
2018-05-06T19:10:17.212Z,46.60
2018-05-06T19:12:43.645Z,46.70
2018-05-06T19:15:10.969Z,47.30
2018-05-06T19:17:37.458Z,46.50
2018-05-06T19:20:04.115Z,46.80
2018-05-06T19:22:31.348Z,46.90
2018-05-06T19:24:57.996Z,46.90
2018-05-06T19:27:24.626Z,47.10
2018-05-06T19:29:51.118Z,47.50
2018-05-06T19:32:17.611Z,47.50
2018-05-06T19:34:44.061Z,47.70
2018-05-06T19:37:11.390Z,47.90
2018-05-06T19:39:37.837Z,47.90
2018-05-06T19:42:06.166Z,48.10
2018-05-06T19:44:31.128Z,48.20
2018-05-06T19:46:57.554Z,49.10
2018-05-06T19:49:24.050Z,48.80
2018-05-06T19:51:50.566Z,49.00
2018-05-06T19:54:16.968Z,49.30
2018-05-06T19:56:43.392Z,49.40
2018-05-06T19:59:09.896Z,49.70
2018-05-06T20:01:37.077Z,50.10
2018-05-06T20:04:03.586Z,50.10
2018-05-06T20:06:30.033Z,50.30
2018-05-06T20:08:57.197Z,50.90
2018-05-06T20:11:23.689Z,50.80
2018-05-06T20:13:50.247Z,51.10
2018-05-06T20:16:17.521Z,51.60
2018-05-06T20:18:43.925Z,51.60
2018-05-06T20:21:10.438Z,51.80
2018-05-06T20:23:36.992Z,52.20
2018-05-06T20:26:04.219Z,53.00
2018-05-06T20:28:30.686Z,52.50
2018-05-06T20:30:57.889Z,53.00
2018-05-06T20:33:24.373Z,52.90
2018-05-06T20:35:50.861Z,53.30
2018-05-06T20:38:17.354Z,53.30
2018-05-06T20:40:43.745Z,53.60
2018-05-06T20:43:10.216Z,54.00
2018-05-06T20:45:36.668Z,54.20
2018-05-06T20:48:03.094Z,54.40
2018-05-06T20:50:29.538Z,54.50
2018-05-06T20:52:55.980Z,54.80
2018-05-06T20:55:22.410Z,55.60
2018-05-06T20:57:48.861Z,55.20
2018-05-06T21:00:15.257Z,55.30
2018-05-06T21:02:41.919Z,55.60
2018-05-06T21:05:08.428Z,55.80
2018-05-06T21:07:35.672Z,56.00
2018-05-06T21:10:02.123Z,56.00
2018-05-06T21:12:28.556Z,56.20
2018-05-06T21:14:55.004Z,56.50
2018-05-06T21:17:21.594Z,56.60
2018-05-06T21:19:48.785Z,56.70
2018-05-06T21:22:15.212Z,56.90
2018-05-06T21:24:41.649Z,57.20
2018-05-06T21:27:08.179Z,58.00
2018-05-06T21:29:35.594Z,57.80
2018-05-06T21:32:02.858Z,58.00
2018-05-06T21:34:29.415Z,57.90
2018-05-06T21:36:56.577Z,58.40
2018-05-06T21:39:23.895Z,58.50
2018-05-06T21:41:50.387Z,58.50
2018-05-06T21:44:16.805Z,58.70
2018-05-06T21:46:43.312Z,58.80
2018-05-06T21:49:10.526Z,59.10
2018-05-06T21:51:36.971Z,59.10
2018-05-06T21:54:03.434Z,59.20
2018-05-06T21:56:30.596Z,59.40
2018-05-06T21:58:57.744Z,59.60
2018-05-06T22:01:24.201Z,59.60
2018-05-06T22:03:50.790Z,59.80
2018-05-06T22:06:18.758Z,60.00
2018-05-06T22:08:46.010Z,60.10
2018-05-06T22:11:12.752Z,60.10
2018-05-06T22:13:39.185Z,60.30
2018-05-06T22:16:06.409Z,60.80
2018-05-06T22:18:32.885Z,60.70
2018-05-06T22:20:59.284Z,61.20
2018-05-06T22:23:25.672Z,61.30
2018-05-06T22:25:52.106Z,61.60
2018-05-06T22:28:18.520Z,61.90
2018-05-06T22:30:45.754Z,62.30
2018-05-06T22:33:12.976Z,62.60
2018-05-06T22:35:39.489Z,62.60
2018-05-06T22:38:05.977Z,62.80
2018-05-06T22:40:32.485Z,62.90
2018-05-06T22:42:58.957Z,63.30
2018-05-06T22:45:26.113Z,63.90
2018-05-06T22:47:53.343Z,64.20
2018-05-06T22:50:20.534Z,64.60
2018-05-06T22:52:53.833Z,64.50
2018-05-06T22:55:20.263Z,64.70
2018-05-06T22:57:46.688Z,65.00
2018-05-06T23:00:13.929Z,65.70
2018-05-06T23:02:41.131Z,65.80
2018-05-06T23:05:07.557Z,65.80
2018-05-06T23:07:34.009Z,66.20
2018-05-06T23:10:00.420Z,66.50
2018-05-06T23:12:26.893Z,66.60
2018-05-06T23:14:53.387Z,66.90
2018-05-06T23:17:19.823Z,67.30
2018-05-06T23:19:46.305Z,67.50
2018-05-06T23:22:13.542Z,67.70
2018-05-06T23:24:40.741Z,67.80
2018-05-06T23:27:07.170Z,67.90
2018-05-06T23:29:33.669Z,67.90
2018-05-06T23:32:00.207Z,68.20
2018-05-06T23:34:26.652Z,68.40
2018-05-06T23:36:53.141Z,68.60
2018-05-06T23:39:19.548Z,69.40
2018-05-06T23:41:46.673Z,69.00
2018-05-06T23:44:13.164Z,69.00
2018-05-06T23:46:39.566Z,69.20
2018-05-06T23:49:05.974Z,69.40
2018-05-06T23:51:33.253Z,69.70
2018-05-06T23:53:59.749Z,69.70
2018-05-06T23:56:27.018Z,70.20
2018-05-06T23:58:53.385Z,70.10
